Time;durP1;ratioP1;P1;durP2;ratioP2;P2;SDS_P1;SDS_P2;PMS_P1;PMS_P2;Temp;Humidity;BMP_temperature;BMP_pressure;BME280_temperature;BME280_humidity;BME280_pressure;Samples;Min_cycle;Max_cycle;Signal;HPM_P1;HPM_P2
2023/03/11 00:02:09;;;;;;;34.25;31.85;;;;;;;;;;5071134;28;20043;-62
2023/03/11 00:04:35;;;;;;;32.25;29.95;;;;;;;;;;5088496;28;20126;-66
2023/03/11 00:07:01;;;;;;;31.48;29.17;;;;;;;;;;5085466;28;20103;-59
2023/03/11 00:09:27;;;;;;;32.15;29.85;;;;;;;;;;5088498;28;20506;-63
2023/03/11 00:11:54;;;;;;;31.75;29.45;;;;;;;;;;5088627;28;20060;-64
2023/03/11 00:14:20;;;;;;;32.70;30.40;;;;;;;;;;5070090;28;20077;-62
2023/03/11 00:16:46;;;;;;;31.15;28.85;;;;;;;;;;5088330;28;20551;-62
2023/03/11 00:19:12;;;;;;;29.55;27.35;;;;;;;;;;5072288;28;20020;-62
2023/03/11 00:21:37;;;;;;;30.63;28.33;;;;;;;;;;5069728;28;20534;-63
2023/03/11 00:24:04;;;;;;;30.60;28.30;;;;;;;;;;5069128;28;20028;-63
2023/03/11 00:26:30;;;;;;;31.83;29.52;;;;;;;;;;5068504;28;20040;-61
2023/03/11 00:28:56;;;;;;;29.73;27.52;;;;;;;;;;5070111;28;20016;-62
2023/03/11 00:31:25;;;;;;;30.80;28.50;;;;;;;;;;5094941;22;20106;-64
2023/03/11 00:33:51;;;;;;;29.92;27.73;;;;;;;;;;5088641;28;20095;-65
2023/03/11 00:36:27;;;;;;;30.02;27.83;;;;;;;;;;5071453;28;20067;-64
2023/03/11 00:38:53;;;;;;;29.65;27.45;;;;;;;;;;5073541;28;20484;-64
2023/03/11 00:41:19;;;;;;;28.65;26.45;;;;;;;;;;5087205;28;20189;-65
2023/03/11 00:43:45;;;;;;;30.13;27.92;;;;;;;;;;5093263;28;20099;-65
2023/03/11 00:46:11;;;;;;;30.13;27.92;;;;;;;;;;5075694;28;20452;-65
2023/03/11 00:48:37;;;;;;;29.05;26.85;;;;;;;;;;5093730;28;20016;-65
2023/03/11 00:51:03;;;;;;;27.48;25.38;;;;;;;;;;5075403;28;20099;-65
2023/03/11 00:53:29;;;;;;;29.20;27.00;;;;;;;;;;5093439;28;20032;-65
2023/03/11 00:55:55;;;;;;;28.20;26.05;;;;;;;;;;5075646;28;20024;-65
2023/03/11 00:58:26;;;;;;;28.27;26.08;;;;;;;;;;5075529;28;20119;-65
2023/03/11 01:00:52;;;;;;;28.55;26.35;;;;;;;;;;5093643;28;20048;-65
2023/03/11 01:03:18;;;;;;;28.05;25.85;;;;;;;;;;5093047;28;20504;-65
2023/03/11 01:05:44;;;;;;;27.83;25.73;;;;;;;;;;5093694;28;20115;-65
2023/03/11 01:08:10;;;;;;;28.02;25.92;;;;;;;;;;5093735;28;20059;-65
2023/03/11 01:10:36;;;;;;;28.35;26.15;;;;;;;;;;5075224;28;20067;-65
2023/03/11 01:13:02;;;;;;;27.48;25.38;;;;;;;;;;5093142;28;20054;-63
2023/03/11 01:15:31;;;;;;;28.30;26.17;;;;;;;;;;5075097;28;20513;-65
2023/03/11 01:17:57;;;;;;;29.00;26.80;;;;;;;;;;5093426;28;20024;-65
2023/03/11 01:20:23;;;;;;;28.63;26.42;;;;;;;;;;5093215;28;20480;-65
2023/03/11 01:22:49;;;;;;;29.42;27.23;;;;;;;;;;5075120;28;20400;-65
2023/03/11 01:25:17;;;;;;;29.20;27.00;;;;;;;;;;5074824;28;20072;-65
2023/03/11 01:27:44;;;;;;;30.73;28.42;;;;;;;;;;5093040;28;20330;-65
2023/03/11 01:30:13;;;;;;;28.33;26.20;;;;;;;;;;5074478;28;20024;-65
2023/03/11 01:32:39;;;;;;;27.40;25.30;;;;;;;;;;5093083;28;20107;-63
2023/03/11 01:35:05;;;;;;;27.65;25.55;;;;;;;;;;5092846;28;20484;-65
2023/03/11 01:37:31;;;;;;;27.63;25.52;;;;;;;;;;5074582;28;20051;-65
2023/03/11 01:39:57;;;;;;;27.30;25.20;;;;;;;;;;5092709;28;20399;-65
2023/03/11 01:42:23;;;;;;;27.02;24.92;;;;;;;;;;5092871;28;20107;-65
2023/03/11 01:44:49;;;;;;;27.33;25.23;;;;;;;;;;5092544;28;20032;-66
2023/03/11 01:47:33;;;;;;;26.27;24.17;;;;;;;;;;5093401;28;20112;-66
2023/03/11 01:49:59;;;;;;;26.48;24.38;;;;;;;;;;5073894;28;20943;-65
2023/03/11 01:52:25;;;;;;;25.85;23.75;;;;;;;;;;5093369;28;20016;-64
2023/03/11 01:54:51;;;;;;;26.15;24.05;;;;;;;;;;5093099;28;20023;-63
2023/03/11 01:57:17;;;;;;;26.33;24.23;;;;;;;;;;5093625;28;20032;-64
2023/03/11 01:59:46;;;;;;;26.27;24.17;;;;;;;;;;5092941;28;20035;-65
2023/03/11 02:02:38;;;;;;;25.55;23.55;;;;;;;;;;5092661;28;20047;-65
2023/03/11 02:05:05;;;;;;;25.40;23.35;;;;;;;;;;5070106;28;20135;-65
2023/03/11 02:07:31;;;;;;;24.60;22.60;;;;;;;;;;5092548;28;20031;-65
2023/03/11 02:09:57;;;;;;;24.45;22.45;;;;;;;;;;5092944;28;20085;-65
2023/03/11 02:12:23;;;;;;;24.90;22.90;;;;;;;;;;5092350;28;20027;-65
2023/03/11 02:14:51;;;;;;;24.42;22.42;;;;;;;;;;5074153;28;20068;-65
2023/03/11 02:17:17;;;;;;;22.53;20.57;;;;;;;;;;5074012;28;20042;-64
2023/03/11 02:20:02;;;;;;;21.58;19.67;;;;;;;;;;5074333;28;20027;-65
2023/03/11 02:22:32;;;;;;;21.13;19.23;;;;;;;;;;5092758;28;20028;-64
2023/03/11 02:24:58;;;;;;;20.73;18.83;;;;;;;;;;5071945;28;20032;-64
2023/03/11 02:27:25;;;;;;;19.58;17.77;;;;;;;;;;5092096;28;20338;-65
2023/03/11 02:29:52;;;;;;;19.55;17.75;;;;;;;;;;5084923;28;20435;-66
2023/03/11 02:32:19;;;;;;;19.95;18.15;;;;;;;;;;5084722;28;20028;-64
2023/03/11 02:34:45;;;;;;;20.35;18.45;;;;;;;;;;5091172;28;20020;-65
2023/03/11 02:37:12;;;;;;;20.15;18.35;;;;;;;;;;5091364;28;20097;-65
2023/03/11 02:39:43;;;;;;;22.20;20.13;;;;;;;;;;5091533;28;20071;-65
2023/03/11 02:42:15;;;;;;;20.10;18.30;;;;;;;;;;5092084;28;20060;-64
2023/03/11 02:44:42;;;;;;;19.75;17.95;;;;;;;;;;5091582;28;20039;-65
2023/03/11 02:47:08;;;;;;;19.48;17.67;;;;;;;;;;5091585;28;20024;-67
2023/03/11 02:49:35;;;;;;;18.90;17.10;;;;;;;;;;5091626;28;20081;-65
2023/03/11 02:52:01;;;;;;;18.80;17.00;;;;;;;;;;5091294;28;20020;-65
2023/03/11 02:54:27;;;;;;;18.73;16.92;;;;;;;;;;5091152;28;20028;-65
2023/03/11 02:56:53;;;;;;;20.20;18.30;;;;;;;;;;5073412;28;20042;-65
2023/03/11 02:59:19;;;;;;;18.50;16.70;;;;;;;;;;5091437;28;20426;-65
2023/03/11 03:01:45;;;;;;;18.20;16.40;;;;;;;;;;5091195;28;20488;-64
2023/03/11 03:04:11;;;;;;;18.30;16.50;;;;;;;;;;5091065;28;20115;-64
2023/03/11 03:06:37;;;;;;;17.83;16.02;;;;;;;;;;5091149;28;20528;-64
2023/03/11 03:09:03;;;;;;;17.00;15.30;;;;;;;;;;5072903;28;20016;-65
2023/03/11 03:11:29;;;;;;;16.00;14.30;;;;;;;;;;5090906;28;20074;-64
2023/03/11 03:13:55;;;;;;;16.13;14.43;;;;;;;;;;5090792;28;20096;-65
2023/03/11 03:16:21;;;;;;;16.90;15.20;;;;;;;;;;5090907;28;20097;-65
2023/03/11 03:18:47;;;;;;;16.17;14.48;;;;;;;;;;5070653;28;20052;-64
2023/03/11 03:21:13;;;;;;;16.05;14.35;;;;;;;;;;5070680;28;20039;-65
2023/03/11 03:23:39;;;;;;;16.17;14.48;;;;;;;;;;5070805;28;20481;-65
2023/03/11 03:26:06;;;;;;;16.23;14.52;;;;;;;;;;5070752;28;20036;-65
2023/03/11 03:28:32;;;;;;;16.58;14.88;;;;;;;;;;5070172;28;20028;-65
2023/03/11 03:31:04;;;;;;;16.25;14.55;;;;;;;;;;5070226;28;20024;-65
2023/03/11 03:33:30;;;;;;;16.20;14.50;;;;;;;;;;5070157;28;20054;-65
2023/03/11 03:35:56;;;;;;;16.30;14.60;;;;;;;;;;5070394;28;20036;-65
2023/03/11 03:38:22;;;;;;;15.73;14.02;;;;;;;;;;5070251;28;20105;-65
2023/03/11 03:40:48;;;;;;;15.50;13.80;;;;;;;;;;5070060;28;20077;-66
2023/03/11 03:43:15;;;;;;;15.90;14.20;;;;;;;;;;5069843;28;20028;-65
2023/03/11 03:45:41;;;;;;;16.25;14.55;;;;;;;;;;5070191;28;20021;-64
2023/03/11 03:48:07;;;;;;;16.00;14.30;;;;;;;;;;5070227;28;20082;-65
2023/03/11 03:50:33;;;;;;;15.82;14.13;;;;;;;;;;5070098;28;20404;-65
2023/03/11 03:52:59;;;;;;;15.85;14.15;;;;;;;;;;5070047;28;20017;-65
2023/03/11 03:55:24;;;;;;;15.93;14.23;;;;;;;;;;5069951;28;20103;-66
2023/03/11 03:57:51;;;;;;;16.05;14.35;;;;;;;;;;5070152;28;20097;-65
2023/03/11 04:00:17;;;;;;;15.88;14.18;;;;;;;;;;5070172;28;20467;-65
2023/03/11 04:02:43;;;;;;;15.82;14.13;;;;;;;;;;5070092;28;20047;-65
2023/03/11 04:05:09;;;;;;;16.45;14.75;;;;;;;;;;5070318;28;20055;-65
2023/03/11 04:07:35;;;;;;;16.08;14.38;;;;;;;;;;5070145;28;20029;-65
2023/03/11 04:10:02;;;;;;;16.08;14.38;;;;;;;;;;5070282;28;20040;-65
2023/03/11 04:12:28;;;;;;;16.42;14.73;;;;;;;;;;5070182;28;20023;-65
2023/03/11 04:14:54;;;;;;;16.08;14.38;;;;;;;;;;5073924;28;20029;-65
2023/03/11 04:17:20;;;;;;;16.08;14.38;;;;;;;;;;5073961;28;20025;-65
2023/03/11 04:19:46;;;;;;;15.48;13.77;;;;;;;;;;5056169;28;20044;-65
2023/03/11 04:22:12;;;;;;;15.38;13.68;;;;;;;;;;5073891;28;20090;-66
2023/03/11 04:24:38;;;;;;;15.95;14.25;;;;;;;;;;5073861;28;20032;-65
2023/03/11 04:27:04;;;;;;;16.02;14.32;;;;;;;;;;5073706;28;20081;-65
2023/03/11 04:29:30;;;;;;;16.33;14.63;;;;;;;;;;5073850;28;20032;-65
2023/03/11 04:31:56;;;;;;;16.33;14.63;;;;;;;;;;5073869;28;20032;-65
2023/03/11 04:34:22;;;;;;;16.25;14.55;;;;;;;;;;5055450;28;20719;-66
2023/03/11 04:36:50;;;;;;;16.20;14.50;;;;;;;;;;5073625;28;20051;-65
2023/03/11 04:39:16;;;;;;;;;;;;;;;;;;5073898;28;20020;-65
2023/03/11 04:41:42;;;;;;;15.75;14.05;;;;;;;;;;5073407;28;20509;-65
2023/03/11 04:44:08;;;;;;;15.63;13.93;;;;;;;;;;5074260;28;20101;-65
2023/03/11 04:46:34;;;;;;;15.85;14.15;;;;;;;;;;5081597;28;20558;-63
2023/03/11 04:49:00;;;;;;;15.90;14.20;;;;;;;;;;5076253;28;20052;-65
2023/03/11 04:51:26;;;;;;;15.82;14.13;;;;;;;;;;5080080;28;20021;-65
2023/03/11 04:53:52;;;;;;;16.25;14.50;;;;;;;;;;5080060;28;20047;-65
2023/03/11 04:56:18;;;;;;;16.10;14.40;;;;;;;;;;5057858;28;20059;-64
2023/03/11 04:58:44;;;;;;;16.55;14.85;;;;;;;;;;5074979;28;20056;-63
2023/03/11 05:01:10;;;;;;;17.48;15.68;;;;;;;;;;5073303;28;20024;-64
2023/03/11 05:03:36;;;;;;;16.65;14.95;;;;;;;;;;5073322;28;20028;-63
2023/03/11 05:06:02;;;;;;;17.00;15.30;;;;;;;;;;5073327;28;20036;-65
2023/03/11 05:08:28;;;;;;;16.60;14.90;;;;;;;;;;5073233;28;20078;-64
2023/03/11 05:10:54;;;;;;;16.40;14.70;;;;;;;;;;5073245;28;20021;-64
2023/03/11 05:13:21;;;;;;;16.25;14.55;;;;;;;;;;5072761;28;20366;-64
2023/03/11 05:15:47;;;;;;;16.00;14.30;;;;;;;;;;5073364;28;20075;-64
2023/03/11 05:18:13;;;;;;;15.82;14.13;;;;;;;;;;5073281;28;20025;-64
2023/03/11 05:20:39;;;;;;;16.02;14.32;;;;;;;;;;5073171;28;20069;-64
2023/03/11 05:23:05;;;;;;;17.17;15.48;;;;;;;;;;5073122;28;20435;-64
2023/03/11 05:25:31;;;;;;;15.55;13.85;;;;;;;;;;5054844;28;20119;-64
2023/03/11 05:27:57;;;;;;;16.10;14.40;;;;;;;;;;5072644;28;20027;-64
2023/03/11 05:30:23;;;;;;;15.70;14.00;;;;;;;;;;5072697;28;20020;-64
2023/03/11 05:32:49;;;;;;;15.73;14.02;;;;;;;;;;5072812;28;20020;-64
2023/03/11 05:35:15;;;;;;;15.73;14.02;;;;;;;;;;5072595;28;20499;-64
2023/03/11 05:37:41;;;;;;;15.55;13.85;;;;;;;;;;5054806;28;20119;-64
2023/03/11 05:40:09;;;;;;;15.52;13.82;;;;;;;;;;5072669;28;20107;-64
2023/03/11 05:42:35;;;;;;;15.90;14.20;;;;;;;;;;5072681;28;20032;-64
2023/03/11 05:45:01;;;;;;;15.57;13.88;;;;;;;;;;5054245;28;20044;-64
2023/03/11 05:47:27;;;;;;;15.50;13.80;;;;;;;;;;5054152;28;20033;-64
2023/03/11 05:49:53;;;;;;;16.02;14.32;;;;;;;;;;5072441;28;20123;-64
2023/03/11 05:52:19;;;;;;;16.15;14.45;;;;;;;;;;5087014;28;20475;-64
2023/03/11 05:54:49;;;;;;;15.95;14.25;;;;;;;;;;5092101;28;20028;-64
2023/03/11 05:57:15;;;;;;;16.40;14.68;;;;;;;;;;5092547;28;20024;-64
2023/03/11 05:59:41;;;;;;;15.75;14.05;;;;;;;;;;5092361;28;20517;-66
2023/03/11 06:02:07;;;;;;;15.80;14.10;;;;;;;;;;5092477;28;20070;-64
2023/03/11 06:04:33;;;;;;;15.70;14.00;;;;;;;;;;5091861;28;20028;-64
2023/03/11 06:06:59;;;;;;;16.27;14.57;;;;;;;;;;5092406;28;20036;-65
2023/03/11 06:09:25;;;;;;;16.33;14.63;;;;;;;;;;5092375;28;20366;-65
2023/03/11 06:11:51;;;;;;;15.60;13.90;;;;;;;;;;5073608;28;20066;-64
2023/03/11 06:14:17;;;;;;;15.93;14.23;;;;;;;;;;5092112;28;20023;-65
2023/03/11 06:16:43;;;;;;;16.17;14.48;;;;;;;;;;5092012;28;20073;-65
2023/03/11 06:19:09;;;;;;;16.10;14.40;;;;;;;;;;5073972;28;20531;-65
2023/03/11 06:21:35;;;;;;;16.00;14.30;;;;;;;;;;5091969;28;20028;-67
2023/03/11 06:24:01;;;;;;;15.63;13.93;;;;;;;;;;5091667;28;20491;-65
2023/03/11 06:26:27;;;;;;;16.20;14.50;;;;;;;;;;5091642;28;20025;-64
2023/03/11 06:28:53;;;;;;;15.63;13.93;;;;;;;;;;5091752;28;20027;-65
2023/03/11 06:31:21;;;;;;;16.27;14.57;;;;;;;;;;5110136;22;20044;-62
2023/03/11 06:33:47;;;;;;;16.15;14.45;;;;;;;;;;5054171;28;20025;-63
2023/03/11 06:36:14;;;;;;;16.15;14.45;;;;;;;;;;5054498;28;20028;-63
2023/03/11 06:38:40;;;;;;;15.98;14.27;;;;;;;;;;5072727;28;20028;-63
2023/03/11 06:41:06;;;;;;;15.98;14.27;;;;;;;;;;5057632;28;20108;-63
2023/03/11 06:43:33;;;;;;;15.45;13.75;;;;;;;;;;5075966;28;20024;-59
2023/03/11 06:45:59;;;;;;;15.40;13.55;;;;;;;;;;5059458;28;20056;-61
2023/03/11 06:48:25;;;;;;;15.50;13.80;;;;;;;;;;5059241;28;20021;-60
2023/03/11 06:50:55;;;;;;;17.42;15.63;;;;;;;;;;5072423;28;20032;-62
2023/03/11 06:53:21;;;;;;;15.40;13.65;;;;;;;;;;5072365;28;20021;-63
2023/03/11 06:55:57;;;;;;;15.32;13.63;;;;;;;;;;5072817;28;20538;-61
2023/03/11 06:58:23;;;;;;;16.05;14.35;;;;;;;;;;5072614;28;20036;-63
2023/03/11 07:00:49;;;;;;;15.30;13.52;;;;;;;;;;5055017;28;20099;-63
2023/03/11 07:03:15;;;;;;;15.10;13.15;;;;;;;;;;5062679;28;20092;-60
2023/03/11 07:05:41;;;;;;;15.30;13.45;;;;;;;;;;5068952;28;20040;-63
2023/03/11 07:08:07;;;;;;;15.20;13.25;;;;;;;;;;5072412;28;20397;-62
2023/03/11 07:10:34;;;;;;;15.00;13.05;;;;;;;;;;5072392;28;20028;-63
2023/03/11 07:13:00;;;;;;;15.30;13.38;;;;;;;;;;5072132;28;20155;-63
2023/03/11 07:15:26;;;;;;;14.93;12.60;;;;;;;;;;5070801;28;20027;-62
2023/03/11 07:17:52;;;;;;;15.10;12.90;;;;;;;;;;5072143;28;20155;-63
2023/03/11 07:20:18;;;;;;;15.05;13.20;;;;;;;;;;5070906;28;20032;-62
2023/03/11 07:22:44;;;;;;;15.00;12.88;;;;;;;;;;5070594;28;20035;-62
2023/03/11 07:25:10;;;;;;;15.05;12.90;;;;;;;;;;5071708;28;20439;-63
2023/03/11 07:27:36;;;;;;;15.10;12.80;;;;;;;;;;5071902;28;20029;-61
2023/03/11 07:30:03;;;;;;;14.82;12.68;;;;;;;;;;5071256;28;20020;-65
2023/03/11 07:32:29;;;;;;;14.50;11.50;;;;;;;;;;5072143;28;20036;-64
2023/03/11 07:34:55;;;;;;;14.50;11.30;;;;;;;;;;5071169;28;20049;-59
2023/03/11 07:37:21;;;;;;;14.60;11.85;;;;;;;;;;5072105;28;20029;-64
2023/03/11 07:39:47;;;;;;;14.60;11.57;;;;;;;;;;5070700;28;20056;-64
2023/03/11 07:42:13;;;;;;;14.57;11.88;;;;;;;;;;5071820;28;20031;-65
2023/03/11 07:44:38;;;;;;;14.43;11.43;;;;;;;;;;5070134;28;20024;-64
2023/03/11 07:47:05;;;;;;;14.68;11.80;;;;;;;;;;5069946;28;20070;-63
2023/03/11 07:49:31;;;;;;;14.70;11.88;;;;;;;;;;5071367;28;20021;-63
2023/03/11 07:51:57;;;;;;;14.80;12.15;;;;;;;;;;5069928;28;20060;-63
2023/03/11 07:54:23;;;;;;;14.50;11.60;;;;;;;;;;5071479;28;20028;-63
2023/03/11 07:56:49;;;;;;;14.30;10.70;;;;;;;;;;5071607;28;20039;-63
2023/03/11 07:59:15;;;;;;;14.25;10.60;;;;;;;;;;5071759;28;20028;-62
2023/03/11 08:01:45;;;;;;;14.20;10.52;;;;;;;;;;5070515;28;20104;-63
2023/03/11 08:04:12;;;;;;;13.95;9.70;;;;;;;;;;5071465;28;20031;-64
2023/03/11 08:06:38;;;;;;;13.85;9.52;;;;;;;;;;5070259;28;20032;-64
2023/03/11 08:09:07;;;;;;;13.73;9.05;;;;;;;;;;5071590;28;20090;-63
2023/03/11 08:11:33;;;;;;;13.65;8.85;;;;;;;;;;5070351;28;20495;-64
2023/03/11 08:13:59;;;;;;;13.68;8.80;;;;;;;;;;5071034;28;20107;-63
2023/03/11 08:16:26;;;;;;;13.60;8.70;;;;;;;;;;5071699;28;20095;-63
2023/03/11 08:18:52;;;;;;;13.38;8.45;;;;;;;;;;5071196;28;20446;-62
2023/03/11 08:21:20;;;;;;;13.65;8.90;;;;;;;;;;5071129;28;20091;-65
2023/03/11 08:23:46;;;;;;;;;;;;;;;;;;5071651;28;20025;-63
2023/03/11 08:26:14;;;;;;;13.63;8.88;;;;;;;;;;5069940;28;19967;-63
2023/03/11 08:28:40;;;;;;;13.80;9.30;;;;;;;;;;5064118;28;20024;-62
2023/03/11 08:31:20;;;;;;;13.60;8.90;;;;;;;;;;5047944;28;20378;-60
2023/03/11 08:33:48;;;;;;;13.57;8.85;;;;;;;;;;5070637;28;20538;-63
2023/03/11 08:36:14;;;;;;;13.75;9.00;;;;;;;;;;5071083;28;20021;-63
2023/03/11 08:38:40;;;;;;;13.35;8.18;;;;;;;;;;5071177;28;20486;-63
2023/03/11 08:41:06;;;;;;;13.27;7.97;;;;;;;;;;5070917;28;20063;-63
2023/03/11 08:43:32;;;;;;;13.23;8.05;;;;;;;;;;5052667;28;20028;-62
2023/03/11 08:46:02;;;;;;;13.35;8.15;;;;;;;;;;5053021;28;20033;-62
2023/03/11 08:48:28;;;;;;;13.10;7.72;;;;;;;;;;5070343;28;20051;-60
2023/03/11 08:50:55;;;;;;;13.60;8.65;;;;;;;;;;5052184;28;20021;-60
2023/03/11 08:53:21;;;;;;;13.40;8.20;;;;;;;;;;5070669;28;20033;-61
2023/03/11 08:55:47;;;;;;;12.18;7.13;;;;;;;;;;5053163;28;20020;-61
2023/03/11 08:58:13;;;;;;;13.18;7.75;;;;;;;;;;5053481;28;20451;-61
2023/03/11 09:00:39;;;;;;;12.57;7.30;;;;;;;;;;5056586;28;20035;-56
2023/03/11 09:03:05;;;;;;;12.98;7.60;;;;;;;;;;5074565;28;20030;-59
2023/03/11 09:05:31;;;;;;;13.38;8.20;;;;;;;;;;5074677;28;20111;-61
2023/03/11 09:07:57;;;;;;;13.38;8.23;;;;;;;;;;5074606;28;20432;-61
2023/03/11 09:10:23;;;;;;;13.10;8.00;;;;;;;;;;5074497;28;20056;-61
2023/03/11 09:12:49;;;;;;;13.60;8.90;;;;;;;;;;5074308;28;20024;-60
2023/03/11 09:15:15;;;;;;;13.63;8.98;;;;;;;;;;5056156;28;20055;-62
2023/03/11 09:17:41;;;;;;;13.77;9.18;;;;;;;;;;5074256;28;20054;-61
2023/03/11 09:20:08;;;;;;;13.77;9.40;;;;;;;;;;5073972;28;20473;-60
2023/03/11 09:22:34;;;;;;;13.90;9.70;;;;;;;;;;5056227;28;20095;-61
2023/03/11 09:24:59;;;;;;;13.95;9.77;;;;;;;;;;5074285;28;20120;-61
2023/03/11 09:27:25;;;;;;;13.80;9.30;;;;;;;;;;5073314;28;20024;-59
2023/03/11 09:29:51;;;;;;;14.57;11.07;;;;;;;;;;5073843;28;20031;-59
2023/03/11 09:32:17;;;;;;;13.73;9.10;;;;;;;;;;5074174;28;20024;-57
2023/03/11 09:34:43;;;;;;;13.68;8.98;;;;;;;;;;5067343;28;20418;-58
2023/03/11 09:37:09;;;;;;;13.85;9.48;;;;;;;;;;5074344;28;20067;-63
2023/03/11 09:39:35;;;;;;;13.85;9.30;;;;;;;;;;5055633;28;20028;-62
2023/03/11 09:42:03;;;;;;;13.60;8.73;;;;;;;;;;5056400;28;20024;-62
2023/03/11 09:44:43;;;;;;;13.90;9.60;;;;;;;;;;5074247;28;20024;-62
2023/03/11 09:47:12;;;;;;;13.77;9.18;;;;;;;;;;5074137;28;20031;-60
2023/03/11 09:49:47;;;;;;;13.77;9.20;;;;;;;;;;5073807;28;20389;-61
2023/03/11 09:52:14;;;;;;;13.85;9.40;;;;;;;;;;5073781;28;20027;-60
2023/03/11 09:54:48;;;;;;;13.80;9.45;;;;;;;;;;5073782;28;20035;-62
2023/03/11 09:57:17;;;;;;;13.85;9.45;;;;;;;;;;5056069;28;20167;-61
2023/03/11 09:59:44;;;;;;;13.90;9.40;;;;;;;;;;5074114;28;20027;-63
2023/03/11 10:02:22;;;;;;;13.82;9.60;;;;;;;;;;5074132;28;20032;-62
2023/03/11 10:04:51;;;;;;;13.80;9.40;;;;;;;;;;5073733;28;20035;-62
2023/03/11 10:07:21;;;;;;;14.00;9.73;;;;;;;;;;5074240;28;20719;-64
2023/03/11 10:09:55;;;;;;;13.98;9.52;;;;;;;;;;5073806;28;20397;-63
2023/03/11 10:12:36;;;;;;;14.00;9.77;;;;;;;;;;5073340;28;20043;-63
2023/03/11 10:15:21;;;;;;;18.83;11.70;;;;;;;;;;5073674;28;20016;-62
2023/03/11 10:17:57;;;;;;;14.00;9.93;;;;;;;;;;5073574;28;20029;-63
2023/03/11 10:20:33;;;;;;;14.07;9.98;;;;;;;;;;5073436;28;20039;-63
2023/03/11 10:22:59;;;;;;;13.93;9.55;;;;;;;;;;5073280;28;20020;-62
2023/03/11 10:25:28;;;;;;;13.90;9.60;;;;;;;;;;5073374;28;20036;-61
2023/03/11 10:28:01;;;;;;;14.30;10.50;;;;;;;;;;5073683;28;20020;-62
2023/03/11 10:30:35;;;;;;;13.95;9.90;;;;;;;;;;5056211;28;20071;-63
2023/03/11 10:33:21;;;;;;;14.20;10.52;;;;;;;;;;5073625;28;20029;-59
2023/03/11 10:35:50;;;;;;;14.25;10.50;;;;;;;;;;5074079;28;20447;-64
2023/03/11 10:38:25;;;;;;;14.30;10.95;;;;;;;;;;5073614;28;20550;-62
2023/03/11 10:40:54;;;;;;;14.45;11.00;;;;;;;;;;5073259;28;20036;-58
2023/03/11 10:43:23;;;;;;;14.40;10.98;;;;;;;;;;5072888;28;20020;-62
2023/03/11 10:45:49;;;;;;;14.38;10.73;;;;;;;;;;5073309;28;20028;-62
2023/03/11 10:48:17;;;;;;;14.50;11.25;;;;;;;;;;5055101;28;20028;-63
2023/03/11 10:50:49;;;;;;;14.50;11.27;;;;;;;;;;5072449;28;20029;-63
2023/03/11 10:53:17;;;;;;;14.43;10.90;;;;;;;;;;5073006;28;20028;-64
2023/03/11 10:55:48;;;;;;;17.73;13.55;;;;;;;;;;5055205;28;20025;-67
2023/03/11 10:58:16;;;;;;;14.30;10.77;;;;;;;;;;5072619;28;20028;-63
2023/03/11 11:00:42;;;;;;;14.18;10.27;;;;;;;;;;5072804;28;20493;-63
2023/03/11 11:03:37;;;;;;;14.20;10.38;;;;;;;;;;5072355;28;20044;-63
2023/03/11 11:06:06;;;;;;;14.07;10.07;;;;;;;;;;5054865;28;20064;-64
2023/03/11 11:08:32;;;;;;;14.30;10.70;;;;;;;;;;5054009;28;20098;-62
2023/03/11 11:11:00;;;;;;;14.20;10.70;;;;;;;;;;5072565;28;20105;-63
2023/03/11 11:13:29;;;;;;;14.15;10.18;;;;;;;;;;5054465;28;20044;-63
2023/03/11 11:16:05;;;;;;;14.18;10.15;;;;;;;;;;5063211;28;20031;-64
2023/03/11 11:18:44;;;;;;;14.02;10.18;;;;;;;;;;5070003;28;20112;-67
2023/03/11 11:21:15;;;;;;;14.35;10.82;;;;;;;;;;5067667;28;20021;-65
2023/03/11 11:23:43;;;;;;;14.20;10.25;;;;;;;;;;5062135;28;20630;-63
2023/03/11 11:26:38;;;;;;;14.20;10.37;;;;;;;;;;5071648;28;20112;-66
2023/03/11 11:29:06;;;;;;;14.27;10.70;;;;;;;;;;5053384;28;20306;-65
2023/03/11 11:31:32;;;;;;;14.20;10.30;;;;;;;;;;5049589;28;20040;-65
2023/03/11 11:33:59;;;;;;;14.25;10.48;;;;;;;;;;5065473;28;20164;-65
2023/03/11 11:36:30;;;;;;;14.30;10.60;;;;;;;;;;5062528;28;20062;-66
2023/03/11 11:38:56;;;;;;;14.30;10.60;;;;;;;;;;5072046;28;20021;-65
2023/03/11 11:41:23;;;;;;;14.20;10.40;;;;;;;;;;5067585;28;20041;-66
2023/03/11 11:43:54;;;;;;;14.20;10.23;;;;;;;;;;5070656;28;20383;-65
2023/03/11 11:46:20;;;;;;;14.30;10.63;;;;;;;;;;5069197;28;20025;-65
2023/03/11 11:48:47;;;;;;;14.20;10.15;;;;;;;;;;5071475;28;20085;-64
2023/03/11 11:51:34;;;;;;;14.30;10.57;;;;;;;;;;5072470;28;20044;-62
2023/03/11 11:54:10;;;;;;;14.23;10.32;;;;;;;;;;5062990;28;20021;-64
2023/03/11 11:56:36;;;;;;;14.00;9.93;;;;;;;;;;5068960;28;20036;-65
2023/03/11 11:59:05;;;;;;;14.18;10.27;;;;;;;;;;5071493;28;20028;-62
2023/03/11 12:01:31;;;;;;;;;;;;;;;;;;5072503;28;20021;-64
2023/03/11 12:04:00;;;;;;;14.00;9.80;;;;;;;;;;5071840;28;19904;-64
2023/03/11 12:06:33;;;;;;;13.98;9.90;;;;;;;;;;5072411;28;20027;-65
2023/03/11 12:09:13;;;;;;;14.50;10.60;;;;;;;;;;5045079;28;20090;-65
2023/03/11 12:11:47;;;;;;;14.07;9.88;;;;;;;;;;5063381;28;20020;-65
2023/03/11 12:14:29;;;;;;;14.02;9.93;;;;;;;;;;5055458;28;20040;-65
2023/03/11 12:16:56;;;;;;;14.13;10.30;;;;;;;;;;5071887;28;20032;-64
2023/03/11 12:19:25;;;;;;;14.00;10.00;;;;;;;;;;5071960;28;20480;-66
2023/03/11 12:21:57;;;;;;;13.98;9.77;;;;;;;;;;5071468;28;20024;-66
2023/03/11 12:24:30;;;;;;;14.20;10.43;;;;;;;;;;5070484;28;20134;-68
2023/03/11 12:26:59;;;;;;;14.23;10.43;;;;;;;;;;5071834;28;20021;-65
2023/03/11 12:29:33;;;;;;;14.40;10.98;;;;;;;;;;5072309;28;20179;-66
2023/03/11 12:32:01;;;;;;;14.30;10.73;;;;;;;;;;5072135;28;20089;-66
2023/03/11 12:34:27;;;;;;;14.35;10.90;;;;;;;;;;5073739;28;20016;-65
2023/03/11 12:36:56;;;;;;;14.32;10.63;;;;;;;;;;5057841;28;20040;-61
2023/03/11 12:39:27;;;;;;;17.42;11.20;;;;;;;;;;5119306;22;20048;-63
2023/03/11 12:42:12;;;;;;;15.70;10.30;;;;;;;;;;5113837;28;20028;-65
2023/03/11 12:44:39;;;;;;;15.48;10.73;;;;;;;;;;5113546;28;20045;-63
2023/03/11 12:47:11;;;;;;;17.52;11.13;;;;;;;;;;5114028;28;20027;-65
2023/03/11 12:49:44;;;;;;;19.40;11.52;;;;;;;;;;5113944;28;20478;-63
2023/03/11 12:52:13;;;;;;;16.90;10.88;;;;;;;;;;5114352;28;20082;-62
2023/03/11 12:54:42;;;;;;;15.52;11.25;;;;;;;;;;5096505;28;20023;-64
2023/03/11 12:57:18;;;;;;;17.40;10.80;;;;;;;;;;5109835;27;20379;-64
2023/03/11 13:00:06;;;;;;;17.23;10.38;;;;;;;;;;5111344;27;20019;-62
2023/03/11 13:02:46;;;;;;;20.58;10.70;;;;;;;;;;5134276;27;20027;-64
2023/03/11 13:05:21;;;;;;;16.75;11.18;;;;;;;;;;5134172;27;20031;-64
2023/03/11 13:07:50;;;;;;;17.02;10.65;;;;;;;;;;5133802;27;20023;-61
2023/03/11 13:10:20;;;;;;;16.48;10.93;;;;;;;;;;5115166;27;20023;-59
2023/03/11 13:12:50;;;;;;;17.23;10.52;;;;;;;;;;5108617;27;20341;-64
2023/03/11 13:15:19;;;;;;;16.73;10.73;;;;;;;;;;5093067;28;20534;-64
2023/03/11 13:17:57;;;;;;;16.98;10.18;;;;;;;;;;5092642;28;20033;-62
2023/03/11 13:20:41;;;;;;;15.63;10.68;;;;;;;;;;5074942;28;20028;-63
2023/03/11 13:23:07;;;;;;;17.25;10.98;;;;;;;;;;5092976;28;20458;-64
2023/03/11 13:25:52;;;;;;;18.80;11.10;;;;;;;;;;5093628;28;20051;-60
2023/03/11 13:28:24;;;;;;;17.90;10.73;;;;;;;;;;5093007;28;20107;-65
2023/03/11 13:31:03;;;;;;;16.52;10.65;;;;;;;;;;5108981;28;20020;-63
2023/03/11 13:33:37;;;;;;;17.20;11.00;;;;;;;;;;5112940;28;20047;-63
2023/03/11 13:36:09;;;;;;;17.08;11.05;;;;;;;;;;5094955;28;20027;-64
2023/03/11 13:38:54;;;;;;;18.45;10.70;;;;;;;;;;5112872;28;20032;-64
2023/03/11 13:41:25;;;;;;;15.85;10.57;;;;;;;;;;5113149;28;20040;-62
2023/03/11 13:43:51;;;;;;;16.60;10.90;;;;;;;;;;5112977;28;20102;-62
2023/03/11 13:46:24;;;;;;;18.92;10.63;;;;;;;;;;5111639;28;20034;-64
2023/03/11 13:48:50;;;;;;;19.85;10.90;;;;;;;;;;5112741;28;20057;-63
2023/03/11 13:51:22;;;;;;;16.67;11.20;;;;;;;;;;5112848;28;20023;-61
2023/03/11 13:54:01;;;;;;;16.20;11.32;;;;;;;;;;5112583;28;20068;-63
2023/03/11 13:56:30;;;;;;;17.02;11.35;;;;;;;;;;5112723;28;20092;-64
2023/03/11 13:59:14;;;;;;;16.33;11.07;;;;;;;;;;5109814;28;20126;-63
2023/03/11 14:01:47;;;;;;;16.67;10.63;;;;;;;;;;5105605;28;20032;-63
2023/03/11 14:04:15;;;;;;;15.75;10.40;;;;;;;;;;5111935;28;20479;-62
2023/03/11 14:06:42;;;;;;;17.48;10.70;;;;;;;;;;5112234;28;20039;-62
2023/03/11 14:09:17;;;;;;;20.42;10.98;;;;;;;;;;5112330;28;20408;-63
2023/03/11 14:11:47;;;;;;;15.32;11.02;;;;;;;;;;5094095;28;20453;-61
2023/03/11 14:14:37;;;;;;;15.90;10.60;;;;;;;;;;5112049;28;20386;-62
2023/03/11 14:17:04;;;;;;;16.73;10.95;;;;;;;;;;5112874;28;20129;-61
2023/03/11 14:19:30;;;;;;;18.25;10.60;;;;;;;;;;5112374;28;20031;-63
2023/03/11 14:21:56;;;;;;;15.98;10.25;;;;;;;;;;5112521;28;20153;-62
2023/03/11 14:24:24;;;;;;;16.65;10.52;;;;;;;;;;5112427;28;20589;-62
2023/03/11 14:26:55;;;;;;;15.38;10.38;;;;;;;;;;5112399;28;20027;-62
2023/03/11 14:29:27;;;;;;;17.50;11.05;;;;;;;;;;5111758;28;20051;-62